Terminal Aerodrome Forecast
Issued by NWS

Home | Current Version | Previous Version | Text Only | Print | Product List | Glossary On
Versions: 1 2 3 4 5 6 7 8 9 10 11 12 13 14 15 16 17 18 19
230
FTUS46 KPDT 132320
TAFBDN
TAF
KBDN 132320Z 1400/1424 21012KT P6SM OVC080
     FM140300 22011KT P6SM VCSH SCT030 OVC050
     FM140600 22011KT 6SM -RA BKN025 OVC035=

USA.gov is the U.S. government's official web portal to all federal, state and local government web resources and services.